sensor_id;sensor_type;location;lat;lon;timestamp;pressure;altitude;pressure_sealevel;temperature;humidity
34081;BME280;20358;50.272;19.026;2023-08-20T00:01:45;98600.00;;;26.68;62.20
34081;BME280;20358;50.272;19.026;2023-08-20T00:04:52;98605.69;;;26.65;62.14
34081;BME280;20358;50.272;19.026;2023-08-20T00:08:07;98599.00;;;26.61;61.96
34081;BME280;20358;50.272;19.026;2023-08-20T00:11:13;98601.84;;;26.59;62.22
34081;BME280;20358;50.272;19.026;2023-08-20T00:14:20;98592.31;;;26.48;62.55
34081;BME280;20358;50.272;19.026;2023-08-20T00:17:49;98602.03;;;26.49;62.28
34081;BME280;20358;50.272;19.026;2023-08-20T00:20:59;98600.34;;;26.48;62.51
34081;BME280;20358;50.272;19.026;2023-08-20T00:24:13;98600.03;;;26.43;62.61
34081;BME280;20358;50.272;19.026;2023-08-20T00:27:24;98596.03;;;26.39;62.65
34081;BME280;20358;50.272;19.026;2023-08-20T00:30:35;98601.38;;;26.39;62.48
34081;BME280;20358;50.272;19.026;2023-08-20T00:33:46;98592.69;;;26.37;62.85
34081;BME280;20358;50.272;19.026;2023-08-20T00:37:07;98589.66;;;26.32;63.04
34081;BME280;20358;50.272;19.026;2023-08-20T00:40:16;98591.66;;;26.30;62.99
34081;BME280;20358;50.272;19.026;2023-08-20T00:43:23;98589.47;;;26.26;63.26
34081;BME280;20358;50.272;19.026;2023-08-20T00:46:30;98579.59;;;26.26;63.02
34081;BME280;20358;50.272;19.026;2023-08-20T00:49:41;98575.09;;;26.27;63.01
34081;BME280;20358;50.272;19.026;2023-08-20T00:52:48;98581.28;;;26.27;63.32
34081;BME280;20358;50.272;19.026;2023-08-20T00:56:03;98572.41;;;26.27;63.27
34081;BME280;20358;50.272;19.026;2023-08-20T00:59:16;98582.28;;;26.26;63.23
34081;BME280;20358;50.272;19.026;2023-08-20T01:02:28;98576.09;;;26.26;63.34
34081;BME280;20358;50.272;19.026;2023-08-20T01:05:53;98584.97;;;26.26;63.09
34081;BME280;20358;50.272;19.026;2023-08-20T01:09:17;98577.09;;;26.25;63.23
34081;BME280;20358;50.272;19.026;2023-08-20T01:12:38;98585.47;;;26.22;63.21
34081;BME280;20358;50.272;19.026;2023-08-20T01:15:51;98583.97;;;26.19;63.20
34081;BME280;20358;50.272;19.026;2023-08-20T01:19:05;98584.31;;;26.16;63.09
34081;BME280;20358;50.272;19.026;2023-08-20T01:26:24;98588.63;;;26.09;63.07
34081;BME280;20358;50.272;19.026;2023-08-20T01:29:41;98586.28;;;26.06;63.39
34081;BME280;20358;50.272;19.026;2023-08-20T01:32:52;98580.25;;;26.04;63.52
34081;BME280;20358;50.272;19.026;2023-08-20T01:36:00;98585.63;;;26.04;63.49
34081;BME280;20358;50.272;19.026;2023-08-20T01:39:13;98583.28;;;26.01;63.92
34081;BME280;20358;50.272;19.026;2023-08-20T01:42:21;98580.06;;;25.98;63.83
34081;BME280;20358;50.272;19.026;2023-08-20T01:45:35;98575.22;;;25.93;64.04
34081;BME280;20358;50.272;19.026;2023-08-20T01:48:41;98586.09;;;25.92;63.87
34081;BME280;20358;50.272;19.026;2023-08-20T01:51:48;98586.09;;;25.92;63.62
34081;BME280;20358;50.272;19.026;2023-08-20T01:55:01;98589.78;;;25.91;63.61
34081;BME280;20358;50.272;19.026;2023-08-20T01:58:11;98590.97;;;25.88;64.04
34081;BME280;20358;50.272;19.026;2023-08-20T02:01:21;98583.25;;;25.85;64.06
34081;BME280;20358;50.272;19.026;2023-08-20T02:04:31;98585.25;;;25.83;64.66
34081;BME280;20358;50.272;19.026;2023-08-20T02:07:37;98577.88;;;25.77;64.69
34081;BME280;20358;50.272;19.026;2023-08-20T02:10:59;98587.09;;;25.82;64.73
34081;BME280;20358;50.272;19.026;2023-08-20T02:14:11;98587.41;;;25.79;64.74
34081;BME280;20358;50.272;19.026;2023-08-20T02:17:28;98585.25;;;25.75;64.96
34081;BME280;20358;50.272;19.026;2023-08-20T02:20:36;98592.63;;;25.73;65.01
34081;BME280;20358;50.272;19.026;2023-08-20T02:23:43;98584.06;;;25.69;64.75
34081;BME280;20358;50.272;19.026;2023-08-20T02:26:56;98579.88;;;25.67;64.75
34081;BME280;20358;50.272;19.026;2023-08-20T02:30:03;98577.72;;;25.70;64.79
34081;BME280;20358;50.272;19.026;2023-08-20T02:33:14;98592.09;;;25.69;64.49
34081;BME280;20358;50.272;19.026;2023-08-20T02:36:19;98581.38;;;25.69;64.84
34081;BME280;20358;50.272;19.026;2023-08-20T02:39:31;98586.75;;;25.69;64.85
34081;BME280;20358;50.272;19.026;2023-08-20T02:42:37;98596.28;;;25.72;64.93
34081;BME280;20358;50.272;19.026;2023-08-20T02:45:46;98592.09;;;25.69;64.81
34081;BME280;20358;50.272;19.026;2023-08-20T02:48:55;98587.91;;;25.67;64.83
34081;BME280;20358;50.272;19.026;2023-08-20T02:52:03;98589.75;;;25.66;64.90
34081;BME280;20358;50.272;19.026;2023-08-20T02:55:09;98585.22;;;25.67;64.93
34081;BME280;20358;50.272;19.026;2023-08-20T02:58:18;98595.28;;;25.65;64.83
34081;BME280;20358;50.272;19.026;2023-08-20T03:01:29;98604.63;;;25.61;65.08
34081;BME280;20358;50.272;19.026;2023-08-20T03:04:45;98602.25;;;25.58;64.96
34081;BME280;20358;50.272;19.026;2023-08-20T03:07:51;98606.63;;;25.59;64.69
34081;BME280;20358;50.272;19.026;2023-08-20T03:11:02;98621.00;;;25.58;64.75
34081;BME280;20358;50.272;19.026;2023-08-20T03:14:08;98614.31;;;25.54;64.78
34081;BME280;20358;50.272;19.026;2023-08-20T03:17:15;98618.34;;;25.50;64.59
34081;BME280;20358;50.272;19.026;2023-08-20T03:20:30;98609.88;;;25.45;64.95
34081;BME280;20358;50.272;19.026;2023-08-20T03:23:38;98611.59;;;25.46;65.19
34081;BME280;20358;50.272;19.026;2023-08-20T03:26:51;98612.91;;;25.42;65.43
34081;BME280;20358;50.272;19.026;2023-08-20T03:29:58;98620.09;;;25.41;65.25
34081;BME280;20358;50.272;19.026;2023-08-20T03:33:06;98621.75;;;25.42;65.41
34081;BME280;20358;50.272;19.026;2023-08-20T03:36:18;98620.94;;;25.42;65.31
34081;BME280;20358;50.272;19.026;2023-08-20T03:39:24;98622.78;;;25.41;64.94
34081;BME280;20358;50.272;19.026;2023-08-20T03:42:31;98625.47;;;25.41;64.82
34081;BME280;20358;50.272;19.026;2023-08-20T03:45:39;98628.13;;;25.41;64.85
34081;BME280;20358;50.272;19.026;2023-08-20T03:48:46;98624.94;;;25.38;65.11
34081;BME280;20358;50.272;19.026;2023-08-20T03:51:54;98624.94;;;25.38;64.89
34081;BME280;20358;50.272;19.026;2023-08-20T03:55:07;98617.56;;;25.32;64.78
34081;BME280;20358;50.272;19.026;2023-08-20T03:58:13;98619.91;;;25.35;64.85
34081;BME280;20358;50.272;19.026;2023-08-20T04:01:22;98623.28;;;25.37;64.87
34081;BME280;20358;50.272;19.026;2023-08-20T04:04:28;98618.91;;;25.36;64.93
34081;BME280;20358;50.272;19.026;2023-08-20T04:07:39;98622.44;;;25.36;64.91
34081;BME280;20358;50.272;19.026;2023-08-20T04:10:46;98624.25;;;25.36;65.12
34081;BME280;20358;50.272;19.026;2023-08-20T04:13:53;98624.94;;;25.38;64.96
34081;BME280;20358;50.272;19.026;2023-08-20T04:17:01;98614.22;;;25.38;65.02
34081;BME280;20358;50.272;19.026;2023-08-20T04:20:10;98621.09;;;25.40;65.21
34081;BME280;20358;50.272;19.026;2023-08-20T04:23:24;98622.09;;;25.39;65.22
34081;BME280;20358;50.272;19.026;2023-08-20T04:26:35;98619.94;;;25.43;65.14
34081;BME280;20358;50.272;19.026;2023-08-20T04:29:43;98635.56;;;25.47;65.14
34081;BME280;20358;50.272;19.026;2023-08-20T04:32:51;98626.50;;;25.48;65.03
34081;BME280;20358;50.272;19.026;2023-08-20T04:35:57;98632.72;;;25.49;65.16
34081;BME280;20358;50.272;19.026;2023-08-20T04:39:12;98624.50;;;25.50;65.40
34081;BME280;20358;50.272;19.026;2023-08-20T04:42:22;98632.88;;;25.55;65.25
34081;BME280;20358;50.272;19.026;2023-08-20T04:45:34;98640.59;;;25.58;65.43
34081;BME280;20358;50.272;19.026;2023-08-20T04:48:40;98641.13;;;25.62;65.57
34081;BME280;20358;50.272;19.026;2023-08-20T04:51:52;98657.22;;;25.70;65.10
34081;BME280;20358;50.272;19.026;2023-08-20T04:55:06;98647.84;;;25.74;65.13
34081;BME280;20358;50.272;19.026;2023-08-20T04:58:17;98645.81;;;25.76;64.93
34081;BME280;20358;50.272;19.026;2023-08-20T05:01:24;98646.56;;;25.86;64.61
34081;BME280;20358;50.272;19.026;2023-08-20T05:04:42;98640.84;;;25.89;64.92
34081;BME280;20358;50.272;19.026;2023-08-20T05:07:51;98646.56;;;26.02;64.90
34081;BME280;20358;50.272;19.026;2023-08-20T05:11:04;98654.31;;;26.13;64.55
34081;BME280;20358;50.272;19.026;2023-08-20T05:14:12;98656.69;;;26.24;64.24
34081;BME280;20358;50.272;19.026;2023-08-20T05:17:20;98655.66;;;26.33;63.68
34081;BME280;20358;50.272;19.026;2023-08-20T05:20:26;98662.06;;;26.40;63.57
34081;BME280;20358;50.272;19.026;2023-08-20T05:23:39;98656.00;;;26.46;63.29
34081;BME280;20358;50.272;19.026;2023-08-20T05:26:56;98658.16;;;26.51;62.54
34081;BME280;20358;50.272;19.026;2023-08-20T05:30:13;98658.34;;;26.58;62.49
34081;BME280;20358;50.272;19.026;2023-08-20T05:33:20;98661.03;;;26.66;62.27
34081;BME280;20358;50.272;19.026;2023-08-20T05:36:27;98665.72;;;26.72;62.03
34081;BME280;20358;50.272;19.026;2023-08-20T05:39:37;98666.41;;;26.82;61.57
34081;BME280;20358;50.272;19.026;2023-08-20T05:42:50;98667.41;;;26.89;61.92
34081;BME280;20358;50.272;19.026;2023-08-20T05:46:01;98665.38;;;26.99;61.71
34081;BME280;20358;50.272;19.026;2023-08-20T05:49:14;98665.34;;;27.07;60.89
34081;BME280;20358;50.272;19.026;2023-08-20T05:52:30;98664.66;;;27.13;60.52
34081;BME280;20358;50.272;19.026;2023-08-20T05:55:38;98671.34;;;27.17;60.74
34081;BME280;20358;50.272;19.026;2023-08-20T05:58:47;98673.19;;;27.25;60.19
34081;BME280;20358;50.272;19.026;2023-08-20T06:01:55;98677.03;;;27.30;59.98
34081;BME280;20358;50.272;19.026;2023-08-20T06:05:01;98676.00;;;27.39;60.34
34081;BME280;20358;50.272;19.026;2023-08-20T06:08:15;98673.28;;;27.47;59.79
34081;BME280;20358;50.272;19.026;2023-08-20T06:11:21;98687.03;;;27.52;59.80
34081;BME280;20358;50.272;19.026;2023-08-20T06:14:30;98682.66;;;27.59;59.60
34081;BME280;20358;50.272;19.026;2023-08-20T06:17:37;98682.44;;;27.69;59.66
34081;BME280;20358;50.272;19.026;2023-08-20T06:20:49;98676.03;;;27.78;59.29
34081;BME280;20358;50.272;19.026;2023-08-20T06:24:02;98682.22;;;27.79;58.42
34081;BME280;20358;50.272;19.026;2023-08-20T06:27:10;98682.56;;;27.76;57.90
34081;BME280;20358;50.272;19.026;2023-08-20T06:30:20;98685.13;;;27.69;58.44
34081;BME280;20358;50.272;19.026;2023-08-20T06:33:27;98689.00;;;27.66;58.50
34081;BME280;20358;50.272;19.026;2023-08-20T06:36:33;98682.94;;;27.73;58.37
34081;BME280;20358;50.272;19.026;2023-08-20T06:39:40;98689.59;;;27.85;58.23
34081;BME280;20358;50.272;19.026;2023-08-20T06:42:47;98689.19;;;27.96;58.11
34081;BME280;20358;50.272;19.026;2023-08-20T06:45:57;98693.53;;;28.05;57.42
34081;BME280;20358;50.272;19.026;2023-08-20T06:49:04;98687.94;;;28.14;57.42
34081;BME280;20358;50.272;19.026;2023-08-20T06:52:11;98695.22;;;28.28;57.12
34081;BME280;20358;50.272;19.026;2023-08-20T06:55:17;98689.25;;;28.41;57.12
34081;BME280;20358;50.272;19.026;2023-08-20T06:58:24;98685.19;;;28.45;56.56
34081;BME280;20358;50.272;19.026;2023-08-20T07:01:33;98676.03;;;28.54;56.14
34081;BME280;20358;50.272;19.026;2023-08-20T07:04:41;98690.22;;;28.71;55.85
34081;BME280;20358;50.272;19.026;2023-08-20T07:07:47;98688.28;;;28.79;55.48
34081;BME280;20358;50.272;19.026;2023-08-20T07:10:58;98691.72;;;28.88;54.74
34081;BME280;20358;50.272;19.026;2023-08-20T07:14:08;98695.56;;;28.94;54.65
34081;BME280;20358;50.272;19.026;2023-08-20T07:17:19;98700.94;;;29.08;54.60
34081;BME280;20358;50.272;19.026;2023-08-20T07:20:24;98695.69;;;29.15;54.28
34081;BME280;20358;50.272;19.026;2023-08-20T07:23:35;98699.66;;;29.19;54.33
34081;BME280;20358;50.272;19.026;2023-08-20T07:26:41;98700.44;;;29.27;54.04
34081;BME280;20358;50.272;19.026;2023-08-20T07:29:48;98699.16;;;29.38;54.41
34081;BME280;20358;50.272;19.026;2023-08-20T07:32:57;98697.56;;;29.43;53.47
34081;BME280;20358;50.272;19.026;2023-08-20T07:36:12;98698.97;;;29.54;53.52
34081;BME280;20358;50.272;19.026;2023-08-20T07:39:18;98698.66;;;29.64;53.72
34081;BME280;20358;50.272;19.026;2023-08-20T07:42:29;98697.94;;;29.70;52.92
34081;BME280;20358;50.272;19.026;2023-08-20T07:45:36;98701.06;;;29.73;52.99
34081;BME280;20358;50.272;19.026;2023-08-20T07:48:48;98701.00;;;29.81;52.60
34081;BME280;20358;50.272;19.026;2023-08-20T07:52:03;98701.53;;;29.91;52.73
34081;BME280;20358;50.272;19.026;2023-08-20T07:55:10;98710.34;;;30.00;52.49
34081;BME280;20358;50.272;19.026;2023-08-20T07:58:16;98705.03;;;30.06;51.73
34081;BME280;20358;50.272;19.026;2023-08-20T08:01:23;98707.59;;;30.15;51.40
34081;BME280;20358;50.272;19.026;2023-08-20T08:04:32;98705.44;;;30.25;51.73
34081;BME280;20358;50.272;19.026;2023-08-20T08:07:49;98719.84;;;30.32;51.67
34081;BME280;20358;50.272;19.026;2023-08-20T08:10:56;98716.31;;;30.31;51.20
34081;BME280;20358;50.272;19.026;2023-08-20T08:14:03;98710.91;;;30.31;51.39
34081;BME280;20358;50.272;19.026;2023-08-20T08:17:11;98714.44;;;30.32;51.06
34081;BME280;20358;50.272;19.026;2023-08-20T08:20:23;98718.09;;;30.39;50.67
34081;BME280;20358;50.272;19.026;2023-08-20T08:23:30;98713.84;;;30.51;50.47
34081;BME280;20358;50.272;19.026;2023-08-20T08:26:38;98711.47;;;30.62;50.73
34081;BME280;20358;50.272;19.026;2023-08-20T08:29:44;98716.91;;;30.69;50.60
34081;BME280;20358;50.272;19.026;2023-08-20T08:32:51;98712.81;;;30.73;49.72
34081;BME280;20358;50.272;19.026;2023-08-20T08:36:04;98713.69;;;30.80;49.50
34081;BME280;20358;50.272;19.026;2023-08-20T08:39:19;98713.34;;;30.90;48.85
34081;BME280;20358;50.272;19.026;2023-08-20T08:42:25;98714.28;;;30.97;48.01
34081;BME280;20358;50.272;19.026;2023-08-20T08:45:33;98715.13;;;30.97;46.94
34081;BME280;20358;50.272;19.026;2023-08-20T08:48:42;98717.25;;;31.02;47.27
34081;BME280;20358;50.272;19.026;2023-08-20T08:52:00;98721.41;;;31.04;46.39
34081;BME280;20358;50.272;19.026;2023-08-20T08:55:09;98714.78;;;31.07;47.26
34081;BME280;20358;50.272;19.026;2023-08-20T08:58:16;98715.66;;;31.14;47.17
34081;BME280;20358;50.272;19.026;2023-08-20T09:01:22;98711.97;;;31.21;46.66
34081;BME280;20358;50.272;19.026;2023-08-20T09:04:31;98723.41;;;31.23;46.28
34081;BME280;20358;50.272;19.026;2023-08-20T09:07:44;98727.41;;;31.27;45.65
34081;BME280;20358;50.272;19.026;2023-08-20T09:11:07;98726.19;;;31.37;46.08
34081;BME280;20358;50.272;19.026;2023-08-20T09:14:21;98721.75;;;31.50;46.14
34081;BME280;20358;50.272;19.026;2023-08-20T09:17:28;98718.03;;;31.58;45.48
34081;BME280;20358;50.272;19.026;2023-08-20T09:20:36;98721.88;;;31.70;45.74
34081;BME280;20358;50.272;19.026;2023-08-20T09:23:54;98726.91;;;31.79;45.09
34081;BME280;20358;50.272;19.026;2023-08-20T09:27:03;98728.19;;;31.90;44.79
34081;BME280;20358;50.272;19.026;2023-08-20T09:30:21;98728.28;;;32.03;44.53
34081;BME280;20358;50.272;19.026;2023-08-20T09:33:28;98727.69;;;32.14;44.41
34081;BME280;20358;50.272;19.026;2023-08-20T09:36:35;98735.59;;;32.16;42.47
34081;BME280;20358;50.272;19.026;2023-08-20T09:39:46;98739.59;;;32.26;41.86
34081;BME280;20358;50.272;19.026;2023-08-20T09:43:01;98740.03;;;32.36;41.18
34081;BME280;20358;50.272;19.026;2023-08-20T09:46:16;98734.03;;;32.47;41.01
34081;BME280;20358;50.272;19.026;2023-08-20T09:49:29;98735.28;;;32.51;41.61
34081;BME280;20358;50.272;19.026;2023-08-20T09:52:51;98733.84;;;32.56;41.56
34081;BME280;20358;50.272;19.026;2023-08-20T09:56:13;98728.25;;;32.64;41.43
34081;BME280;20358;50.272;19.026;2023-08-20T09:59:26;98725.56;;;32.70;41.37
34081;BME280;20358;50.272;19.026;2023-08-20T10:02:35;98722.63;;;32.72;39.81
34081;BME280;20358;50.272;19.026;2023-08-20T10:05:42;98720.53;;;32.74;39.87
34081;BME280;20358;50.272;19.026;2023-08-20T10:08:50;98723.69;;;32.84;40.80
34081;BME280;20358;50.272;19.026;2023-08-20T10:12:01;98719.31;;;32.83;40.55
34081;BME280;20358;50.272;19.026;2023-08-20T10:15:09;98714.31;;;32.86;40.48
34081;BME280;20358;50.272;19.026;2023-08-20T10:18:21;98711.81;;;32.98;40.09
34081;BME280;20358;50.272;19.026;2023-08-20T10:21:27;98696.78;;;32.95;39.61
34081;BME280;20358;50.272;19.026;2023-08-20T10:24:44;98705.56;;;33.10;38.77
34081;BME280;20358;50.272;19.026;2023-08-20T10:28:12;98708.28;;;33.17;38.86
34081;BME280;20358;50.272;19.026;2023-08-20T10:31:26;98711.41;;;33.07;39.63
34081;BME280;20358;50.272;19.026;2023-08-20T10:34:35;98708.09;;;33.12;39.85
34081;BME280;20358;50.272;19.026;2023-08-20T10:38:04;98693.06;;;33.23;40.21
34081;BME280;20358;50.272;19.026;2023-08-20T10:41:11;98705.75;;;33.35;37.92
34081;BME280;20358;50.272;19.026;2023-08-20T10:44:26;98711.34;;;33.47;37.95
34081;BME280;20358;50.272;19.026;2023-08-20T10:47:42;98707.78;;;33.46;37.85
34081;BME280;20358;50.272;19.026;2023-08-20T10:50:51;98706.34;;;33.50;37.82
34081;BME280;20358;50.272;19.026;2023-08-20T10:54:06;98708.44;;;33.48;38.04
34081;BME280;20358;50.272;19.026;2023-08-20T10:57:15;98697.78;;;33.60;37.91
34081;BME280;20358;50.272;19.026;2023-08-20T11:00:29;98698.81;;;33.65;36.45
34081;BME280;20358;50.272;19.026;2023-08-20T11:03:37;98698.81;;;33.72;38.29
34081;BME280;20358;50.272;19.026;2023-08-20T11:06:52;98705.22;;;33.78;36.67
34081;BME280;20358;50.272;19.026;2023-08-20T11:10:08;98700.25;;;33.75;37.61
34081;BME280;20358;50.272;19.026;2023-08-20T11:13:14;98694.19;;;33.72;36.47
34081;BME280;20358;50.272;19.026;2023-08-20T11:16:34;98703.38;;;33.72;37.74
34081;BME280;20358;50.272;19.026;2023-08-20T11:19:44;98686.31;;;33.64;38.21
34081;BME280;20358;50.272;19.026;2023-08-20T11:23:10;98691.72;;;33.64;37.59
34081;BME280;20358;50.272;19.026;2023-08-20T11:26:18;98682.97;;;33.62;37.73
34081;BME280;20358;50.272;19.026;2023-08-20T11:29:26;98694.63;;;33.69;38.03
34081;BME280;20358;50.272;19.026;2023-08-20T11:32:48;98687.09;;;33.72;37.61
34081;BME280;20358;50.272;19.026;2023-08-20T11:35:56;98690.84;;;33.70;37.67
34081;BME280;20358;50.272;19.026;2023-08-20T11:39:03;98690.00;;;33.77;37.89
34081;BME280;20358;50.272;19.026;2023-08-20T11:42:10;98677.09;;;33.65;37.79
34081;BME280;20358;50.272;19.026;2023-08-20T11:45:18;98680.66;;;33.59;37.07
34081;BME280;20358;50.272;19.026;2023-08-20T11:48:28;98680.06;;;33.57;37.83
34081;BME280;20358;50.272;19.026;2023-08-20T11:51:43;98669.22;;;33.57;36.95
34081;BME280;20358;50.272;19.026;2023-08-20T11:54:53;98673.38;;;33.66;37.32
34081;BME280;20358;50.272;19.026;2023-08-20T11:58:02;98665.78;;;33.75;36.15
34081;BME280;20358;50.272;19.026;2023-08-20T12:01:13;98669.97;;;33.78;36.32
34081;BME280;20358;50.272;19.026;2023-08-20T12:04:25;98671.22;;;33.82;36.30
34081;BME280;20358;50.272;19.026;2023-08-20T12:07:33;98679.97;;;33.84;36.71
34081;BME280;20358;50.272;19.026;2023-08-20T12:10:42;98671.63;;;33.85;36.89
34081;BME280;20358;50.272;19.026;2023-08-20T12:13:50;98678.50;;;33.88;36.38
34081;BME280;20358;50.272;19.026;2023-08-20T12:16:56;98668.44;;;33.95;36.77
34081;BME280;20358;50.272;19.026;2023-08-20T12:20:10;98668.25;;;33.90;36.59
34081;BME280;20358;50.272;19.026;2023-08-20T12:23:25;98683.28;;;33.86;36.60
34081;BME280;20358;50.272;19.026;2023-08-20T12:26:31;98678.56;;;33.75;36.54
34081;BME280;20358;50.272;19.026;2023-08-20T12:29:40;98676.22;;;33.85;36.30
34081;BME280;20358;50.272;19.026;2023-08-20T12:32:48;98667.81;;;33.93;36.34
34081;BME280;20358;50.272;19.026;2023-08-20T12:36:00;98669.72;;;33.86;36.62
34081;BME280;20358;50.272;19.026;2023-08-20T12:39:07;98658.25;;;33.84;36.86
34081;BME280;20358;50.272;19.026;2023-08-20T12:42:14;98661.56;;;33.86;36.82
34081;BME280;20358;50.272;19.026;2023-08-20T12:45:25;98666.16;;;33.92;36.96
34081;BME280;20358;50.272;19.026;2023-08-20T12:48:34;98674.09;;;33.87;35.89
34081;BME280;20358;50.272;19.026;2023-08-20T12:51:43;98659.50;;;33.88;35.96
34081;BME280;20358;50.272;19.026;2023-08-20T12:54:52;98662.81;;;33.90;35.84
34081;BME280;20358;50.272;19.026;2023-08-20T12:58:04;98652.16;;;33.95;35.89
34081;BME280;20358;50.272;19.026;2023-08-20T13:01:16;98652.75;;;33.97;35.71
34081;BME280;20358;50.272;19.026;2023-08-20T13:04:27;98667.00;;;33.86;35.92
34081;BME280;20358;50.272;19.026;2023-08-20T13:07:39;98661.22;;;33.76;35.85
34081;BME280;20358;50.272;19.026;2023-08-20T13:10:53;98665.16;;;33.80;35.80
34081;BME280;20358;50.272;19.026;2023-08-20T13:14:01;98660.78;;;33.79;35.56
34081;BME280;20358;50.272;19.026;2023-08-20T13:17:10;98648.66;;;33.88;35.91
34081;BME280;20358;50.272;19.026;2023-08-20T13:20:19;98655.66;;;34.02;36.32
34081;BME280;20358;50.272;19.026;2023-08-20T13:23:34;98659.38;;;34.14;35.56
34081;BME280;20358;50.272;19.026;2023-08-20T13:26:46;98661.81;;;34.22;34.98
34081;BME280;20358;50.272;19.026;2023-08-20T13:29:52;98655.53;;;34.28;35.43
34081;BME280;20358;50.272;19.026;2023-08-20T13:33:04;98653.84;;;34.27;35.00
34081;BME280;20358;50.272;19.026;2023-08-20T13:36:16;98656.75;;;34.32;34.81
34081;BME280;20358;50.272;19.026;2023-08-20T13:39:25;98654.00;;;34.39;35.49
34081;BME280;20358;50.272;19.026;2023-08-20T13:42:32;98647.91;;;34.43;35.29
34081;BME280;20358;50.272;19.026;2023-08-20T13:45:41;98657.50;;;34.46;34.49
34081;BME280;20358;50.272;19.026;2023-08-20T13:48:51;98652.03;;;34.52;34.95
34081;BME280;20358;50.272;19.026;2023-08-20T13:51:57;98644.06;;;34.57;34.25
34081;BME280;20358;50.272;19.026;2023-08-20T13:55:08;98649.69;;;34.62;34.38
34081;BME280;20358;50.272;19.026;2023-08-20T13:58:17;98651.84;;;34.78;34.63
34081;BME280;20358;50.272;19.026;2023-08-20T14:01:25;98644.44;;;34.85;34.57
34081;BME280;20358;50.272;19.026;2023-08-20T14:04:33;98644.00;;;34.88;34.21
34081;BME280;20358;50.272;19.026;2023-08-20T14:07:43;98637.50;;;34.89;34.50
34081;BME280;20358;50.272;19.026;2023-08-20T14:10:55;98634.50;;;34.98;34.17
34081;BME280;20358;50.272;19.026;2023-08-20T14:14:01;98635.72;;;35.02;33.47
34081;BME280;20358;50.272;19.026;2023-08-20T14:17:09;98629.84;;;35.05;33.80
34081;BME280;20358;50.272;19.026;2023-08-20T14:20:19;98643.16;;;35.13;34.07
34081;BME280;20358;50.272;19.026;2023-08-20T14:23:31;98633.63;;;35.04;33.60
34081;BME280;20358;50.272;19.026;2023-08-20T14:26:41;98635.47;;;35.10;33.76
34081;BME280;20358;50.272;19.026;2023-08-20T14:29:47;98623.31;;;34.87;33.54
34081;BME280;20358;50.272;19.026;2023-08-20T14:32:56;98632.97;;;34.83;34.25
34081;BME280;20358;50.272;19.026;2023-08-20T14:36:03;98634.63;;;34.84;34.16
34081;BME280;20358;50.272;19.026;2023-08-20T14:39:11;98640.91;;;34.85;34.05
34081;BME280;20358;50.272;19.026;2023-08-20T14:42:22;98629.16;;;34.91;34.07
34081;BME280;20358;50.272;19.026;2023-08-20T14:45:28;98641.00;;;34.97;33.49
34081;BME280;20358;50.272;19.026;2023-08-20T14:48:35;98639.78;;;34.92;33.54
34081;BME280;20358;50.272;19.026;2023-08-20T14:51:45;98626.91;;;34.81;33.40
34081;BME280;20358;50.272;19.026;2023-08-20T14:54:56;98623.75;;;34.84;33.72
34081;BME280;20358;50.272;19.026;2023-08-20T14:58:06;98625.31;;;34.99;33.86
34081;BME280;20358;50.272;19.026;2023-08-20T15:01:14;98628.53;;;35.14;33.41
34081;BME280;20358;50.272;19.026;2023-08-20T15:04:23;98620.22;;;35.27;32.99
34081;BME280;20358;50.272;19.026;2023-08-20T15:07:36;98622.78;;;35.40;32.82
34081;BME280;20358;50.272;19.026;2023-08-20T15:10:43;98634.41;;;35.47;32.32
34081;BME280;20358;50.272;19.026;2023-08-20T15:13:54;98627.16;;;35.41;32.15
34081;BME280;20358;50.272;19.026;2023-08-20T15:17:02;98619.19;;;35.28;32.24
34081;BME280;20358;50.272;19.026;2023-08-20T15:20:09;98637.28;;;35.16;32.57
34081;BME280;20358;50.272;19.026;2023-08-20T15:23:17;98619.44;;;35.02;32.13
34081;BME280;20358;50.272;19.026;2023-08-20T15:26:23;98617.75;;;35.01;32.37
34081;BME280;20358;50.272;19.026;2023-08-20T15:29:36;98618.19;;;34.98;32.72
34081;BME280;20358;50.272;19.026;2023-08-20T15:32:43;98627.44;;;34.97;32.63
34081;BME280;20358;50.272;19.026;2023-08-20T15:35:56;98632.22;;;34.95;32.53
34081;BME280;20358;50.272;19.026;2023-08-20T15:39:08;98614.41;;;34.80;32.67
34081;BME280;20358;50.272;19.026;2023-08-20T15:42:15;98616.69;;;34.83;32.98
34081;BME280;20358;50.272;19.026;2023-08-20T15:45:24;98605.59;;;35.03;32.89
34081;BME280;20358;50.272;19.026;2023-08-20T15:48:34;98610.47;;;35.37;32.80
34081;BME280;20358;50.272;19.026;2023-08-20T15:51:43;98618.25;;;35.70;32.04
34081;BME280;20358;50.272;19.026;2023-08-20T15:54:52;98616.88;;;35.79;31.73
34081;BME280;20358;50.272;19.026;2023-08-20T15:58:00;98615.75;;;35.98;31.67
34081;BME280;20358;50.272;19.026;2023-08-20T16:01:13;98612.81;;;36.30;32.03
34081;BME280;20358;50.272;19.026;2023-08-20T16:04:19;98615.00;;;36.51;30.73
34081;BME280;20358;50.272;19.026;2023-08-20T16:07:28;98613.63;;;36.83;30.36
34081;BME280;20358;50.272;19.026;2023-08-20T16:10:35;98616.97;;;37.08;29.59
34081;BME280;20358;50.272;19.026;2023-08-20T16:13:44;98621.13;;;37.22;29.55
34081;BME280;20358;50.272;19.026;2023-08-20T16:16:54;98613.97;;;37.45;29.45
34081;BME280;20358;50.272;19.026;2023-08-20T16:20:01;98612.19;;;37.78;28.95
34081;BME280;20358;50.272;19.026;2023-08-20T16:23:11;98615.78;;;38.07;28.82
34081;BME280;20358;50.272;19.026;2023-08-20T16:26:20;98614.00;;;38.29;28.60
34081;BME280;20358;50.272;19.026;2023-08-20T16:29:27;98611.06;;;38.47;28.32
34081;BME280;20358;50.272;19.026;2023-08-20T16:32:36;98618.94;;;38.61;28.14
34081;BME280;20358;50.272;19.026;2023-08-20T16:35:45;98614.72;;;38.70;28.17
34081;BME280;20358;50.272;19.026;2023-08-20T16:38:52;98621.25;;;38.69;27.91